createdAt,value
2023-04-18T00:01:17.896Z,99.9
2023-04-18T00:09:28.855Z,99.9
2023-04-18T00:13:32.779Z,99.9
2023-04-18T00:17:36.766Z,99.9
2023-04-18T00:23:45.689Z,99.9
2023-04-18T00:25:47.677Z,99.9
2023-04-18T00:27:49.730Z,99.9
2023-04-18T00:29:51.733Z,99.9
2023-04-18T00:31:53.766Z,99.9
2023-04-18T00:33:55.747Z,99.9
2023-04-18T00:36:00.856Z,99.9
2023-04-18T00:42:06.985Z,99.9
2023-04-18T00:46:11.414Z,99.9
2023-04-18T00:48:13.089Z,99.9
2023-04-18T00:50:18.193Z,99.9
2023-04-18T00:52:20.153Z,99.9
2023-04-18T00:54:22.299Z,99.9
2023-04-18T01:09:42.214Z,99.9
2023-04-18T01:11:44.320Z,99.9
2023-04-18T01:13:46.378Z,99.9
2023-04-18T01:17:53.689Z,99.9
2023-04-18T01:21:57.786Z,99.9
2023-04-18T01:23:59.897Z,99.9
2023-04-18T01:26:01.987Z,99.9
2023-04-18T01:28:04.043Z,99.9
2023-04-18T01:30:06.114Z,99.9
2023-04-18T01:32:11.312Z,99.9
2023-04-18T01:34:13.621Z,99.9
2023-04-18T01:38:17.497Z,99.9
2023-04-18T01:40:19.576Z,99.9
2023-04-18T01:42:21.640Z,99.9
2023-04-18T01:44:23.686Z,99.9
2023-04-18T01:48:30.968Z,99.9
2023-04-18T01:51:35.639Z,99.9
2023-04-18T01:57:41.829Z,99.9
2023-04-18T01:59:47.041Z,99.9
2023-04-18T02:03:51.374Z,99.9
2023-04-18T02:11:59.504Z,99.9
2023-04-18T02:18:08.792Z,99.9
2023-04-18T02:20:10.899Z,99.9
2023-04-18T02:22:12.937Z,99.9
2023-04-18T02:24:15.227Z,99.9
2023-04-18T02:26:17.011Z,99.9
2023-04-18T02:28:22.236Z,99.9
2023-04-18T02:32:26.390Z,99.9
2023-04-18T02:34:28.382Z,99.9
2023-04-18T02:36:30.448Z,99.9
2023-04-18T02:38:32.488Z,99.9
2023-04-18T02:40:34.493Z,99.9
2023-04-18T02:42:39.707Z,99.9
2023-04-18T02:46:43.797Z,99.9
2023-04-18T02:47:54.493Z,99.9
2023-04-18T02:49:48.454Z,99.9
2023-04-18T02:51:50.505Z,99.9
2023-04-18T02:53:52.566Z,99.9
2023-04-18T02:55:57.766Z,99.9
2023-04-18T02:57:59.834Z,99.9
2023-04-18T03:02:03.939Z,99.9
2023-04-18T03:04:05.983Z,99.9
2023-04-18T03:06:08.040Z,99.9
2023-04-18T03:10:15.279Z,99.9
2023-04-18T03:12:17.324Z,99.9
2023-04-18T03:16:21.548Z,99.9
2023-04-18T03:18:23.510Z,99.9
2023-04-18T03:20:25.558Z,99.9
2023-04-18T03:22:27.597Z,99.9
2023-04-18T03:24:32.779Z,99.9
2023-04-18T03:26:34.837Z,99.9
2023-04-18T03:28:36.895Z,99.9
2023-04-18T03:30:38.954Z,99.9
2023-04-18T03:36:46.592Z,99.9
2023-04-18T03:38:50.352Z,99.9
2023-04-18T03:40:52.442Z,99.9
2023-04-18T03:45:13.633Z,99.9
2023-04-18T03:47:20.779Z,99.9
2023-04-18T03:49:22.724Z,99.9
2023-04-18T03:51:29.506Z,99.9
2023-04-18T03:53:31.518Z,99.9
2023-04-18T03:55:33.587Z,99.9
2023-04-18T03:57:35.630Z,99.9
2023-04-18T03:59:37.683Z,99.9
2023-04-18T04:01:39.842Z,99.9
2023-04-18T04:17:59.141Z,99.9
2023-04-18T04:30:14.469Z,99.9
2023-04-18T04:34:22.440Z,99.9
2023-04-18T04:36:24.504Z,99.9
2023-04-18T04:39:29.200Z,99.9
2023-04-18T04:41:31.246Z,99.9
2023-04-18T04:43:33.328Z,99.9
2023-04-18T04:45:35.418Z,99.9
2023-04-18T04:47:40.622Z,99.9
2023-04-18T04:49:42.569Z,99.9
2023-04-18T04:51:44.521Z,99.9
2023-04-18T04:53:46.628Z,99.9
2023-04-18T04:55:48.693Z,99.9
2023-04-18T04:59:52.803Z,99.9
2023-04-18T05:01:57.956Z,99.9
2023-04-18T05:04:00.114Z,99.9
2023-04-18T05:10:06.249Z,99.9
2023-04-18T05:12:08.317Z,99.9
2023-04-18T05:14:10.368Z,99.9
2023-04-18T05:22:21.534Z,99.9
2023-04-18T05:24:23.529Z,99.9
2023-04-18T05:26:25.627Z,99.9
2023-04-18T05:28:27.661Z,99.9
2023-04-18T05:30:32.767Z,99.9
2023-04-18T05:35:39.348Z,99.9
2023-04-18T05:37:41.309Z,99.9
2023-04-18T05:39:43.250Z,99.9
2023-04-18T05:43:58.144Z,99.9
2023-04-18T05:45:52.630Z,99.9
2023-04-18T05:47:54.320Z,99.9
2023-04-18T05:49:56.257Z,99.9
2023-04-18T05:51:58.297Z,99.9
2023-04-18T05:54:00.272Z,99.9
2023-04-18T05:56:02.257Z,99.9
2023-04-18T05:58:07.278Z,99.9
2023-04-18T06:00:09.253Z,99.9
2023-04-18T06:24:36.055Z,99.9
2023-04-18T06:31:47.606Z,99.9
2023-04-18T06:37:53.493Z,99.9
2023-04-18T06:39:58.523Z,99.9
2023-04-18T06:42:00.527Z,99.9
2023-04-18T06:44:04.123Z,99.9
2023-04-18T06:46:04.527Z,99.9
2023-04-18T06:50:08.456Z,99.9
2023-04-18T07:04:25.542Z,99.9
2023-04-18T07:06:27.432Z,99.9
2023-04-18T07:08:32.465Z,99.9
2023-04-18T07:10:34.449Z,99.9
2023-04-18T07:12:36.447Z,99.9
2023-04-18T07:14:38.436Z,99.9
2023-04-18T07:16:40.526Z,99.9
2023-04-18T07:18:42.400Z,86.1
2023-04-18T07:20:44.404Z,87.4
2023-04-18T07:22:49.472Z,91.2
2023-04-18T07:24:51.434Z,92.6
2023-04-18T07:26:55.052Z,92.6
2023-04-18T07:29:16.000Z,92.4
2023-04-18T07:31:17.987Z,90.9
2023-04-18T07:37:26.991Z,71.3
2023-04-18T07:39:29.009Z,88.2
2023-04-18T07:41:30.984Z,98.8
2023-04-18T08:03:59.199Z,99.9
2023-04-18T08:06:01.132Z,99.9
2023-04-18T08:08:03.135Z,99.9
2023-04-18T08:10:05.136Z,99.9
2023-04-18T08:12:07.104Z,99.9
2023-04-18T08:14:09.121Z,99.9
2023-04-18T08:16:11.155Z,99.9
2023-04-18T08:18:16.174Z,99.9
2023-04-18T08:22:20.161Z,99.9
2023-04-18T08:23:22.698Z,99.9
2023-04-18T08:31:33.792Z,99.9
2023-04-18T08:33:35.734Z,99.9
2023-04-18T08:35:37.745Z,99.9
2023-04-18T08:37:39.740Z,99.9
2023-04-18T08:53:58.792Z,99.9
2023-04-18T09:06:13.978Z,99.9
2023-04-18T09:16:26.952Z,99.9
2023-04-18T09:19:31.433Z,99.9
2023-04-18T09:21:33.456Z,99.9
2023-04-18T09:23:35.462Z,99.9
2023-04-18T09:25:38.410Z,99.9
2023-04-18T09:27:42.501Z,99.9
2023-04-18T09:29:44.493Z,99.9
2023-04-18T09:31:46.489Z,99.9
2023-04-18T09:41:59.592Z,99.9
2023-04-18T09:44:03.092Z,99.9
2023-04-18T09:46:05.130Z,99.9
2023-04-18T09:48:07.107Z,99.9
2023-04-18T09:50:09.089Z,99.9
2023-04-18T09:52:11.074Z,99.9
2023-04-18T09:56:18.139Z,99.9
2023-04-18T09:58:20.148Z,99.9
2023-04-18T10:00:22.143Z,99.9
2023-04-18T10:02:24.236Z,99.9
2023-04-18T10:04:26.206Z,99.9
2023-04-18T10:06:28.148Z,99.9
2023-04-18T10:08:30.168Z,99.9
2023-04-18T10:10:35.231Z,99.9
2023-04-18T10:12:37.229Z,99.9
2023-04-18T10:17:56.218Z,99.9
2023-04-18T10:19:45.800Z,99.9
2023-04-18T10:23:52.845Z,99.9
2023-04-18T10:34:05.629Z,99.2
2023-04-18T10:36:04.904Z,98.5
2023-04-18T10:38:09.897Z,98.6
2023-04-18T10:40:11.909Z,98.6
2023-04-18T10:42:13.906Z,98.6
2023-04-18T10:44:16.354Z,98.8
2023-04-18T10:46:31.160Z,99.3
2023-04-18T10:48:19.957Z,99.5
2023-04-18T10:50:21.922Z,99.7
2023-04-18T10:54:29.409Z,99.9
2023-04-18T10:56:31.401Z,99.9
2023-04-18T10:58:33.414Z,99.9
2023-04-18T11:00:35.425Z,99.9
2023-04-18T11:23:18.324Z,74.6
2023-04-18T11:25:20.328Z,74.2
2023-04-18T11:27:22.341Z,74.2
2023-04-18T11:37:35.423Z,79.2
2023-04-18T11:41:39.417Z,79.9
2023-04-18T11:43:41.410Z,81.4
2023-04-18T11:47:48.529Z,88.3
2023-04-18T11:51:52.474Z,90.5
2023-04-18T11:53:54.470Z,93.7
2023-04-18T11:55:56.578Z,95.6
2023-04-18T11:57:58.474Z,97.6
2023-04-18T12:00:00.489Z,98
2023-04-18T12:06:09.644Z,99.4
2023-04-18T12:07:12.077Z,99.7
2023-04-18T12:09:14.062Z,99.8
2023-04-18T12:11:16.063Z,99.8
2023-04-18T12:15:23.137Z,99.8
2023-04-18T12:17:25.214Z,99.8
2023-04-18T12:19:27.107Z,99.9
2023-04-18T12:21:29.161Z,99.2
2023-04-18T12:27:35.133Z,98.5
2023-04-18T12:29:40.177Z,97.4
2023-04-18T12:31:42.217Z,97.5
2023-04-18T12:37:48.191Z,97.5
2023-04-18T12:39:50.186Z,97.5
2023-04-18T12:41:52.297Z,97.7
2023-04-18T12:50:03.243Z,94.3
2023-04-18T12:52:05.276Z,93
2023-04-18T12:54:07.250Z,85.3
2023-04-18T13:00:16.282Z,77.4
2023-04-18T13:02:18.357Z,77.1
2023-04-18T13:03:20.915Z,70
2023-04-18T13:07:24.806Z,67.6
2023-04-18T13:09:26.801Z,68.9
2023-04-18T13:11:31.883Z,72.4
2023-04-18T13:13:35.690Z,72.3
2023-04-18T13:15:35.849Z,72.7
2023-04-18T13:31:54.904Z,69.3
2023-04-18T13:42:07.854Z,71.2
2023-04-18T13:44:10.075Z,71.1
2023-04-18T13:46:12.139Z,71.2
2023-04-18T13:48:16.238Z,70.9
2023-04-18T13:50:16.037Z,70.7
2023-04-18T13:52:18.031Z,64.6
2023-04-18T13:54:23.063Z,65.2
2023-04-18T13:56:25.059Z,66.6
2023-04-18T13:58:27.102Z,68.2
2023-04-18T13:59:29.580Z,68
2023-04-18T14:01:31.627Z,67.5
2023-04-18T14:03:34.795Z,63.4
2023-04-18T14:05:35.551Z,62.7
2023-04-18T14:07:40.603Z,62.1
2023-04-18T14:09:42.586Z,61.8
2023-04-18T14:11:44.599Z,61.2
2023-04-18T14:13:46.545Z,61
2023-04-18T14:15:48.526Z,60.8
2023-04-18T14:17:50.516Z,60.1
2023-04-18T14:19:52.498Z,58.4
2023-04-18T14:21:57.534Z,56.5
2023-04-18T14:23:59.500Z,56.1
2023-04-18T14:26:01.467Z,56.1
2023-04-18T14:28:03.428Z,56
2023-04-18T14:30:05.393Z,56.3
2023-04-18T14:32:07.421Z,57.4
2023-04-18T14:34:09.323Z,57.6
2023-04-18T14:36:14.357Z,59.6
2023-04-18T14:38:16.327Z,59.8
2023-04-18T14:40:18.286Z,60.8
2023-04-18T14:52:33.212Z,60.7
2023-04-18T14:58:59.885Z,59.3
2023-04-18T15:03:08.330Z,55.9
2023-04-18T15:05:08.883Z,54.6
2023-04-18T15:07:10.810Z,54.2
2023-04-18T15:09:12.785Z,54.5
2023-04-18T15:15:18.659Z,54.3
2023-04-18T15:17:23.670Z,54.8
2023-04-18T15:19:25.609Z,54.7
2023-04-18T15:27:33.390Z,54.6
2023-04-18T15:37:47.631Z,55.2
2023-04-18T15:39:49.581Z,55.3
2023-04-18T15:41:51.522Z,55.7
2023-04-18T15:43:53.458Z,56.1
2023-04-18T15:45:58.470Z,58.1
2023-04-18T15:48:00.458Z,58
2023-04-18T15:50:02.401Z,58.1
2023-04-18T15:51:04.894Z,57.3
2023-04-18T15:59:15.784Z,56.1
2023-04-18T16:01:17.784Z,56.5
2023-04-18T16:03:19.822Z,56.9
2023-04-18T16:07:23.629Z,57.6
2023-04-18T16:09:25.613Z,57.5
2023-04-18T16:11:27.685Z,57.5
2023-04-18T16:13:32.638Z,57.7
2023-04-18T16:19:38.541Z,58.2
2023-04-18T16:21:40.484Z,58.5
2023-04-18T16:25:44.466Z,58
2023-04-18T16:27:49.506Z,55
2023-04-18T16:31:53.585Z,53.6
2023-04-18T16:33:55.508Z,53.1
2023-04-18T16:35:57.393Z,52.5
2023-04-18T16:37:59.397Z,52.3
2023-04-18T16:40:01.373Z,52
2023-04-18T16:46:10.324Z,51.5
2023-04-18T16:47:12.815Z,54
2023-04-18T16:51:16.735Z,55.4
2023-04-18T16:53:18.733Z,55.9
2023-04-18T16:55:23.777Z,56.3
2023-04-18T16:57:25.729Z,55.9
2023-04-18T16:59:27.730Z,54.2
2023-04-18T17:01:29.723Z,54.2
2023-04-18T17:03:31.760Z,54.1
2023-04-18T17:05:33.668Z,54.1
2023-04-18T17:09:41.099Z,57.1
2023-04-18T17:11:43.079Z,57.5
2023-04-18T17:13:45.095Z,57.3
2023-04-18T17:15:47.051Z,55.4
2023-04-18T17:17:49.067Z,54.1
2023-04-18T17:32:06.010Z,54.8
2023-04-18T17:34:07.930Z,56.4
2023-04-18T17:36:09.912Z,57
2023-04-18T17:38:15.007Z,58.1
2023-04-18T17:43:21.527Z,60
2023-04-18T17:45:23.480Z,60.4
2023-04-18T17:47:25.522Z,60.9
2023-04-18T17:49:27.460Z,61
2023-04-18T17:51:32.531Z,58.9
2023-04-18T17:53:34.525Z,58.1
2023-04-18T17:59:40.525Z,57.4
2023-04-18T18:01:42.529Z,57.7
2023-04-18T18:03:44.924Z,58.2
2023-04-18T18:05:49.566Z,59.2
2023-04-18T18:09:53.640Z,59.8
2023-04-18T18:11:56.112Z,60.4
2023-04-18T18:13:57.692Z,60.8
2023-04-18T18:15:59.584Z,61.8
2023-04-18T18:18:01.693Z,62.7
2023-04-18T18:20:06.676Z,64.4
2023-04-18T18:22:08.682Z,64.9
2023-04-18T18:24:10.723Z,65.4
2023-04-18T18:26:12.706Z,65.7
2023-04-18T18:28:14.690Z,66.2
2023-04-18T18:30:16.711Z,66.4
2023-04-18T18:32:18.719Z,66.7
2023-04-18T18:34:23.785Z,67.4
2023-04-18T18:36:25.771Z,67.8
2023-04-18T18:38:27.783Z,68.6
2023-04-18T18:40:50.503Z,69.9
2023-04-18T18:42:52.531Z,70.9
2023-04-18T18:44:54.531Z,72.9
2023-04-18T18:46:59.634Z,77.2
2023-04-18T18:49:01.715Z,78.4
2023-04-18T18:51:03.639Z,79.9
2023-04-18T18:55:07.634Z,87.4
2023-04-18T19:01:16.692Z,93
2023-04-18T19:05:20.726Z,94
2023-04-18T19:07:22.719Z,94.5
2023-04-18T19:09:24.764Z,94.7
2023-04-18T19:11:26.767Z,95.2
2023-04-18T19:13:28.784Z,95.5
2023-04-18T19:17:35.892Z,96.9
2023-04-18T19:19:37.866Z,98
2023-04-18T19:21:39.864Z,98.6
2023-04-18T19:23:41.886Z,98.9
2023-04-18T19:25:43.905Z,99.2
2023-04-18T19:27:45.901Z,99.5
2023-04-18T19:33:54.965Z,99.9
2023-04-18T19:34:57.515Z,99.9
2023-04-18T19:36:59.546Z,99.9
2023-04-18T19:39:01.577Z,99.9
2023-04-18T19:41:03.529Z,99.9
2023-04-18T19:43:08.596Z,99.9
2023-04-18T19:45:10.601Z,99.9
2023-04-18T19:47:12.607Z,99.9
2023-04-18T19:49:14.866Z,99.9
2023-04-18T19:51:16.620Z,99.9
2023-04-18T19:55:20.627Z,99.9
2023-04-18T20:01:29.795Z,99.9
2023-04-18T20:03:31.906Z,99.9
2023-04-18T20:23:54.823Z,99.9
2023-04-18T20:25:59.903Z,99.9
2023-04-18T20:28:01.898Z,99.9
2023-04-18T20:30:03.863Z,99.9
2023-04-18T20:31:06.478Z,99.9
2023-04-18T20:33:08.483Z,99.9
2023-04-18T20:35:10.421Z,99.9
2023-04-18T20:37:12.715Z,99.9
2023-04-18T20:39:17.801Z,99.9
2023-04-18T20:41:19.796Z,99.9
2023-04-18T20:43:21.790Z,99.9
2023-04-18T20:45:23.815Z,99.9
2023-04-18T20:47:25.798Z,99.9
2023-04-18T20:49:27.790Z,99.9
2023-04-18T20:51:29.825Z,99.9
2023-04-18T20:53:34.862Z,99.9
2023-04-18T20:55:36.854Z,99.9
2023-04-18T20:57:38.849Z,99.9
2023-04-18T20:59:40.877Z,99.9
2023-04-18T21:01:42.938Z,99.9
2023-04-18T21:03:45.079Z,99.9
2023-04-18T21:05:46.847Z,99.9
2023-04-18T21:07:51.909Z,99.9
2023-04-18T21:09:53.896Z,99.9
2023-04-18T21:11:55.916Z,99.9
2023-04-18T21:13:57.913Z,99.9
2023-04-18T21:18:02.111Z,99.9
2023-04-18T21:20:03.902Z,99.9
2023-04-18T21:27:16.995Z,99.9
2023-04-18T21:29:18.952Z,99.9
2023-04-18T21:31:20.981Z,99.9
2023-04-18T21:33:22.938Z,99.9
2023-04-18T21:35:28.002Z,99.9
2023-04-18T21:37:29.976Z,99.9
2023-04-18T21:39:31.965Z,99.9
2023-04-18T21:43:35.990Z,99.9
2023-04-18T21:45:37.956Z,99.9
2023-04-18T21:47:39.978Z,99.9
2023-04-18T21:51:46.984Z,99.9
2023-04-18T21:59:54.938Z,99.9
2023-04-18T22:01:56.941Z,99.9
2023-04-18T22:04:02.195Z,99.9
2023-04-18T22:06:03.966Z,99.9
2023-04-18T22:08:05.953Z,99.9
2023-04-18T22:10:07.925Z,99.9
2023-04-18T22:12:09.963Z,99.9
2023-04-18T22:14:11.921Z,99.9
2023-04-18T22:18:18.987Z,99.9
2023-04-18T22:37:00.737Z,99.9
2023-04-18T22:41:04.755Z,99.9
2023-04-18T22:45:11.774Z,99.9
2023-04-18T22:49:15.787Z,99.9
2023-04-18T22:51:17.711Z,99.9
2023-04-18T22:53:19.693Z,99.9
2023-04-18T22:55:21.681Z,99.9
2023-04-18T22:57:23.653Z,99.9
2023-04-18T22:59:28.677Z,99.9
2023-04-18T23:01:30.805Z,99.9
2023-04-18T23:05:34.632Z,99.9
2023-04-18T23:07:36.603Z,99.9
2023-04-18T23:11:40.573Z,99.9
2023-04-18T23:13:45.573Z,99.9
2023-04-18T23:15:47.649Z,99.9
2023-04-18T23:17:49.695Z,99.9
2023-04-18T23:18:52.063Z,99.9
2023-04-18T23:22:56.117Z,99.9
2023-04-18T23:24:57.985Z,99.9
2023-04-18T23:27:03.008Z,99.9
2023-04-18T23:33:08.961Z,99.9
2023-04-18T23:35:10.947Z,99.9
2023-04-18T23:39:14.856Z,99.9
2023-04-18T23:41:19.891Z,99.9
2023-04-18T23:45:23.833Z,99.9
2023-04-18T23:47:25.856Z,99.9
2023-04-18T23:49:27.774Z,99.9
2023-04-18T23:51:29.737Z,99.9
2023-04-18T23:53:31.719Z,99.9
2023-04-18T23:55:36.757Z,99.9
2023-04-18T23:57:38.720Z,99.9
